Time;durP1;ratioP1;P1;durP2;ratioP2;P2;SDS_P1;SDS_P2;PMS_P1;PMS_P2;Temp;Humidity;BMP_temperature;BMP_pressure;BME280_temperature;BME280_humidity;BME280_pressure;Samples;Min_cycle;Max_cycle;Signal;HPM_P1;HPM_P2
2021/11/02 00:00:52;;;;;;;81.03;49.57;;;;;;;;;;2136267;27;20283;-43
2021/11/02 00:01:53;;;;;;;90.70;53.53;;;;;;;;;;2139554;27;20277;-44
2021/11/02 00:02:54;;;;;;;84.53;47.95;;;;;;;;;;2138541;27;20183;-43
2021/11/02 00:03:55;;;;;;;93.20;53.33;;;;;;;;;;2135772;27;20047;-43
2021/11/02 00:04:56;;;;;;;84.93;51.10;;;;;;;;;;2139857;27;20065;-43
2021/11/02 00:05:57;;;;;;;82.97;48.85;;;;;;;;;;2139227;27;20576;-43
2021/11/02 00:06:58;;;;;;;84.60;51.10;;;;;;;;;;2137841;27;20038;-43
2021/11/02 00:07:59;;;;;;;84.20;50.75;;;;;;;;;;2139705;27;20042;-43
2021/11/02 00:09:01;;;;;;;85.00;49.95;;;;;;;;;;2137657;27;20086;-43
2021/11/02 00:10:03;;;;;;;;;;;;;;;;;;2138731;27;20129;-43
2021/11/02 00:11:04;;;;;;;82.30;46.47;;;;;;;;;;2139704;27;20014;-43
2021/11/02 00:12:07;;;;;;;82.13;50.63;;;;;;;;;;2137569;27;20055;-44
2021/11/02 00:13:08;;;;;;;75.35;48.33;;;;;;;;;;2138222;27;20125;-43
2021/11/02 00:14:13;;;;;;;83.23;51.20;;;;;;;;;;2139871;27;20483;-43
2021/11/02 00:15:20;;;;;;;83.95;53.70;;;;;;;;;;2137742;27;20129;-47
2021/11/02 00:16:22;;;;;;;82.93;51.08;;;;;;;;;;2139350;27;20147;-48
2021/11/02 00:17:25;;;;;;;83.68;51.67;;;;;;;;;;2139846;27;20211;-50
2021/11/02 00:18:26;;;;;;;86.18;51.53;;;;;;;;;;2135981;27;20509;-50
2021/11/02 00:19:28;;;;;;;78.93;48.92;;;;;;;;;;2139842;27;20043;-48
2021/11/02 00:20:30;;;;;;;85.93;50.75;;;;;;;;;;2139591;27;20121;-48
2021/11/02 00:21:34;;;;;;;82.55;49.58;;;;;;;;;;2135429;27;20134;-48
2021/11/02 00:22:36;;;;;;;83.38;53.22;;;;;;;;;;2139208;27;20466;-51
2021/11/02 00:23:38;;;;;;;77.32;49.38;;;;;;;;;;2139098;27;20046;-49
2021/11/02 00:24:50;;;;;;;83.47;51.47;;;;;;;;;;2136821;27;20493;-48
2021/11/02 00:25:51;;;;;;;84.57;51.65;;;;;;;;;;2139677;27;20133;-47
2021/11/02 00:26:52;;;;;;;84.32;46.15;;;;;;;;;;2137576;27;20151;-47
2021/11/02 00:27:54;;;;;;;81.32;51.40;;;;;;;;;;2138469;27;20128;-51
2021/11/02 00:28:55;;;;;;;85.80;51.55;;;;;;;;;;2139706;27;20130;-48
2021/11/02 00:29:56;;;;;;;87.30;46.90;;;;;;;;;;2137672;27;20042;-47
2021/11/02 00:30:57;;;;;;;77.70;48.97;;;;;;;;;;2139607;27;20628;-49
2021/11/02 00:31:58;;;;;;;72.43;47.15;;;;;;;;;;2137825;27;20042;-48
2021/11/02 00:33:00;;;;;;;76.60;47.53;;;;;;;;;;2136362;27;20046;-48
2021/11/02 00:34:00;;;;;;;84.35;51.90;;;;;;;;;;2139597;27;20091;-47
2021/11/02 00:35:02;;;;;;;84.28;50.88;;;;;;;;;;2137231;27;20046;-48
2021/11/02 00:36:03;;;;;;;81.18;50.13;;;;;;;;;;2137239;27;20048;-49
2021/11/02 00:37:04;;;;;;;81.85;47.53;;;;;;;;;;2139693;27;20058;-49
2021/11/02 00:38:05;;;;;;;82.50;52.47;;;;;;;;;;2137461;27;20077;-48
2021/11/02 00:39:06;;;;;;;84.25;51.30;;;;;;;;;;2138149;27;20125;-47
2021/11/02 00:40:08;;;;;;;89.05;50.00;;;;;;;;;;2139614;27;20055;-47
2021/11/02 00:41:09;;;;;;;;;;;;;;;;;;2137990;27;20125;-48
2021/11/02 00:42:10;;;;;;;77.55;48.85;;;;;;;;;;2136860;27;19926;-47
2021/11/02 00:43:12;;;;;;;85.65;51.45;;;;;;;;;;2139586;27;20129;-47
2021/11/02 00:44:13;;;;;;;92.97;53.05;;;;;;;;;;2136663;27;20183;-47
2021/11/02 00:45:15;;;;;;;89.28;49.55;;;;;;;;;;2138942;27;20581;-49
2021/11/02 00:46:23;;;;;;;;;;;;;;;;;;2140045;27;20054;-49
2021/11/02 00:47:26;;;;;;;85.53;51.55;;;;;;;;;;2137273;27;19919;-51
2021/11/02 00:48:28;;;;;;;81.70;49.35;;;;;;;;;;2141052;27;20044;-48
2021/11/02 00:49:28;;;;;;;81.30;50.67;;;;;;;;;;2140999;27;20121;-48
2021/11/02 00:50:32;;;;;;;78.80;49.80;;;;;;;;;;2137126;27;20054;-47
2021/11/02 00:51:33;;;;;;;81.10;50.03;;;;;;;;;;2141030;27;20125;-49
2021/11/02 00:52:34;;;;;;;81.13;48.67;;;;;;;;;;2141063;27;20450;-50
2021/11/02 00:53:35;;;;;;;80.32;49.55;;;;;;;;;;2137285;27;20481;-47
2021/11/02 00:54:36;;;;;;;85.38;52.42;;;;;;;;;;2141166;27;20038;-47
2021/11/02 00:55:37;;;;;;;85.15;52.85;;;;;;;;;;2140492;27;20125;-50
2021/11/02 00:56:38;;;;;;;84.60;54.05;;;;;;;;;;2137884;27;20043;-49
2021/11/02 00:57:39;;;;;;;90.60;51.15;;;;;;;;;;2141012;27;20050;-47
2021/11/02 00:58:41;;;;;;;83.68;51.42;;;;;;;;;;2140411;27;20042;-47
2021/11/02 00:59:43;;;;;;;81.85;51.13;;;;;;;;;;2137982;27;21258;-47
2021/11/02 01:00:44;;;;;;;82.90;51.45;;;;;;;;;;2140964;27;20126;-47
2021/11/02 01:01:45;;;;;;;84.57;50.60;;;;;;;;;;2139397;27;20509;-48
2021/11/02 01:02:46;;;;;;;85.53;48.00;;;;;;;;;;2138949;27;20404;-48
2021/11/02 01:03:47;;;;;;;85.60;51.80;;;;;;;;;;2132390;27;20103;-47
2021/11/02 01:04:48;;;;;;;85.80;52.20;;;;;;;;;;2132948;27;20314;-48
2021/11/02 01:05:50;;;;;;;80.10;51.33;;;;;;;;;;2139307;27;20178;-48
2021/11/02 01:06:52;;;;;;;85.85;54.13;;;;;;;;;;2140729;27;20874;-48
2021/11/02 01:07:53;;;;;;;83.88;52.33;;;;;;;;;;2138732;27;20077;-46
2021/11/02 01:08:54;;;;;;;84.18;52.42;;;;;;;;;;2140884;27;20102;-48
2021/11/02 01:09:55;;;;;;;81.60;49.88;;;;;;;;;;2140897;27;20105;-48
2021/11/02 01:10:56;;;;;;;84.78;50.13;;;;;;;;;;2137275;27;20486;-49
2021/11/02 01:11:57;;;;;;;87.43;51.40;;;;;;;;;;2140688;27;20090;-48
2021/11/02 01:12:58;;;;;;;83.40;51.75;;;;;;;;;;2140961;27;20286;-47
2021/11/02 01:14:00;;;;;;;83.13;49.42;;;;;;;;;;2137135;27;20483;-47
2021/11/02 01:15:01;;;;;;;;;;;;;;;;;;2141499;27;20129;-49
2021/11/02 01:16:03;;;;;;;75.82;50.33;;;;;;;;;;2140820;27;20010;-47
2021/11/02 01:17:04;;;;;;;81.60;49.72;;;;;;;;;;2137147;27;20133;-47
2021/11/02 01:18:05;;;;;;;85.65;52.00;;;;;;;;;;2139181;27;20057;-47
2021/11/02 01:19:06;;;;;;;84.93;48.03;;;;;;;;;;2132334;27;20130;-48
2021/11/02 01:20:08;;;;;;;84.70;51.55;;;;;;;;;;2137757;27;20042;-49
2021/11/02 01:21:09;;;;;;;86.75;53.45;;;;;;;;;;2140701;27;20125;-47
2021/11/02 01:22:10;;;;;;;85.40;51.67;;;;;;;;;;2140405;27;20042;-48
2021/11/02 01:23:11;;;;;;;83.00;52.78;;;;;;;;;;2137773;27;20078;-51
2021/11/02 01:24:13;;;;;;;78.70;49.92;;;;;;;;;;2140940;27;20129;-48
2021/11/02 01:25:14;;;;;;;89.97;52.58;;;;;;;;;;2139432;27;20125;-47
2021/11/02 01:26:16;;;;;;;81.85;51.45;;;;;;;;;;2138699;27;20475;-47
2021/11/02 01:27:16;;;;;;;84.65;52.05;;;;;;;;;;2140695;27;20570;-47
2021/11/02 01:28:18;;;;;;;77.20;49.67;;;;;;;;;;2138713;27;20038;-47
2021/11/02 01:29:19;;;;;;;82.68;51.63;;;;;;;;;;2140175;27;20089;-48
2021/11/02 01:30:20;;;;;;;87.53;51.05;;;;;;;;;;2140661;27;20042;-47
2021/11/02 01:31:21;;;;;;;80.15;49.15;;;;;;;;;;2137156;27;20047;-48
2021/11/02 01:32:22;;;;;;;85.05;50.55;;;;;;;;;;2139228;27;20099;-47
2021/11/02 01:33:23;;;;;;;85.20;51.65;;;;;;;;;;2140859;27;20129;-49
2021/11/02 01:34:24;;;;;;;87.72;52.22;;;;;;;;;;2137601;27;20070;-50
2021/11/02 01:35:25;;;;;;;81.35;52.35;;;;;;;;;;2140380;27;20143;-47
2021/11/02 01:36:27;;;;;;;87.77;52.30;;;;;;;;;;2140776;27;20491;-49
2021/11/02 01:37:31;;;;;;;87.75;52.95;;;;;;;;;;2137012;27;20475;-47
2021/11/02 01:38:32;;;;;;;85.80;53.70;;;;;;;;;;2139407;27;20046;-48
2021/11/02 01:39:33;;;;;;;92.93;53.75;;;;;;;;;;2140747;27;20174;-48
2021/11/02 01:40:34;;;;;;;93.32;54.05;;;;;;;;;;2137086;27;20211;-47
2021/11/02 01:41:35;;;;;;;91.13;54.72;;;;;;;;;;2140623;27;20141;-47
2021/11/02 01:42:36;;;;;;;85.30;52.57;;;;;;;;;;2140729;27;20055;-48
2021/11/02 01:43:38;;;;;;;80.93;52.20;;;;;;;;;;2136893;27;20136;-50
2021/11/02 01:44:40;;;;;;;87.55;52.95;;;;;;;;;;2140783;27;20189;-47
2021/11/02 01:45:40;;;;;;;83.05;49.67;;;;;;;;;;2140582;27;20125;-47
2021/11/02 01:46:44;;;;;;;73.47;45.20;;;;;;;;;;2136944;27;20137;-47
2021/11/02 01:47:45;;;;;;;74.70;47.80;;;;;;;;;;2140683;27;20121;-47
2021/11/02 01:48:47;;;;;;;80.10;50.55;;;;;;;;;;2140196;27;20046;-49
2021/11/02 01:49:47;;;;;;;91.45;54.88;;;;;;;;;;2137482;27;20133;-47
2021/11/02 01:50:49;;;;;;;92.90;53.92;;;;;;;;;;2140550;27;20462;-47
2021/11/02 01:51:50;;;;;;;90.40;54.00;;;;;;;;;;2140103;27;20081;-47
2021/11/02 01:52:51;;;;;;;90.55;54.60;;;;;;;;;;2137637;27;20566;-47
2021/11/02 01:53:52;;;;;;;93.72;55.92;;;;;;;;;;2140602;27;20054;-47
2021/11/02 01:54:53;;;;;;;88.18;54.25;;;;;;;;;;2139138;27;20065;-47
2021/11/02 01:55:54;;;;;;;91.80;55.53;;;;;;;;;;2138481;27;20061;-47
2021/11/02 01:56:55;;;;;;;81.82;51.20;;;;;;;;;;2140792;27;20065;-47
2021/11/02 01:57:56;;;;;;;92.53;52.97;;;;;;;;;;2138486;27;20826;-51
2021/11/02 01:58:59;;;;;;;85.63;54.00;;;;;;;;;;2138878;27;20303;-48
2021/11/02 02:00:01;;;;;;;86.30;51.95;;;;;;;;;;2140671;27;20121;-47
2021/11/02 02:01:03;;;;;;;89.75;53.08;;;;;;;;;;2138198;27;20462;-48
2021/11/02 02:02:06;;;;;;;90.00;53.70;;;;;;;;;;2139115;27;20069;-48
2021/11/02 02:03:11;;;;;;;84.10;53.80;;;;;;;;;;2139057;27;20046;-49
2021/11/02 02:04:15;;;;;;;81.43;52.28;;;;;;;;;;2137129;27;20066;-47
2021/11/02 02:05:22;;;;;;;81.13;51.60;;;;;;;;;;2139416;27;20046;-49
2021/11/02 02:06:25;;;;;;;86.15;54.28;;;;;;;;;;2140664;27;20050;-48
2021/11/02 02:07:32;;;;;;;92.35;53.15;;;;;;;;;;2136798;27;20038;-48
2021/11/02 02:08:38;;;;;;;88.43;54.92;;;;;;;;;;2140531;27;20569;-48
2021/11/02 02:09:42;;;;;;;89.60;53.80;;;;;;;;;;2139945;27;20179;-50
2021/11/02 02:10:46;;;;;;;86.85;53.17;;;;;;;;;;2135573;27;20071;-47
2021/11/02 02:11:52;;;;;;;89.78;51.95;;;;;;;;;;2131893;27;20043;-48
2021/11/02 02:13:00;;;;;;;88.13;55.25;;;;;;;;;;2132198;27;20133;-49
2021/11/02 02:14:05;;;;;;;86.32;52.00;;;;;;;;;;2138346;27;20050;-47
2021/11/02 02:15:10;;;;;;;85.47;53.97;;;;;;;;;;2132061;27;20043;-47
2021/11/02 02:16:13;;;;;;;85.78;53.00;;;;;;;;;;2135489;27;20050;-50
2021/11/02 02:17:16;;;;;;;88.88;52.40;;;;;;;;;;2131709;27;20118;-47
2021/11/02 02:18:21;;;;;;;90.70;54.03;;;;;;;;;;2131732;27;20572;-49
2021/11/02 02:19:38;;;;;;;85.32;51.13;;;;;;;;;;2136612;27;20044;-48
2021/11/02 02:20:57;;;;;;;92.88;55.22;;;;;;;;;;2140547;27;20086;-49
2021/11/02 02:22:04;;;;;;;86.05;54.10;;;;;;;;;;2137773;27;20600;-48
2021/11/02 02:23:15;;;;;;;83.60;52.75;;;;;;;;;;2139433;27;20585;-48
2021/11/02 02:24:31;;;;;;;90.22;55.88;;;;;;;;;;2140350;27;20606;-50
2021/11/02 02:25:39;;;;;;;94.80;56.53;;;;;;;;;;2138063;27;20117;-51
2021/11/02 02:26:46;;;;;;;87.15;52.47;;;;;;;;;;2140490;27;20132;-50
2021/11/02 02:28:07;;;;;;;89.72;53.45;;;;;;;;;;2138249;27;20133;-52
2021/11/02 02:29:09;;;;;;;83.63;51.67;;;;;;;;;;2128115;27;20126;-53
2021/11/02 02:30:10;;;;;;;;;;;;;;;;;;2132209;27;20427;-52
2021/11/02 02:31:13;;;;;;;85.97;53.97;;;;;;;;;;2137199;27;19919;-50
2021/11/02 02:32:16;;;;;;;95.80;54.67;;;;;;;;;;2140254;27;20490;-49
2021/11/02 02:33:20;;;;;;;93.65;55.90;;;;;;;;;;2139014;27;20105;-51
2021/11/02 02:34:22;;;;;;;88.80;55.22;;;;;;;;;;2137101;27;20130;-47
2021/11/02 02:35:22;;;;;;;;;;;;;;;;;;2140741;27;20042;-48
2021/11/02 02:36:24;;;;;;;86.93;55.47;;;;;;;;;;2139207;27;19918;-48
2021/11/02 02:37:26;;;;;;;90.38;54.97;;;;;;;;;;2137924;27;20121;-49
2021/11/02 02:38:28;;;;;;;93.80;56.17;;;;;;;;;;2140231;27;20484;-50
2021/11/02 02:39:30;;;;;;;92.47;55.58;;;;;;;;;;2138157;27;20083;-49
2021/11/02 02:40:31;;;;;;;96.95;56.53;;;;;;;;;;2138643;27;20056;-51
2021/11/02 02:41:32;;;;;;;88.55;54.25;;;;;;;;;;2140341;27;20121;-50
2021/11/02 02:42:34;;;;;;;93.13;56.80;;;;;;;;;;2137937;27;20111;-50
2021/11/02 02:43:37;;;;;;;91.78;54.28;;;;;;;;;;2139179;27;20050;-53
2021/11/02 02:44:40;;;;;;;94.15;56.38;;;;;;;;;;2140321;27;20159;-49
2021/11/02 02:45:41;;;;;;;92.13;56.38;;;;;;;;;;2136822;27;20079;-49
2021/11/02 02:46:43;;;;;;;95.72;58.10;;;;;;;;;;2139869;27;20042;-52
2021/11/02 02:47:47;;;;;;;92.32;56.05;;;;;;;;;;2140278;27;20049;-51
2021/11/02 02:48:49;;;;;;;94.85;57.55;;;;;;;;;;2137174;27;20422;-53
2021/11/02 02:49:50;;;;;;;98.45;58.85;;;;;;;;;;2139893;27;20042;-50
2021/11/02 02:50:52;;;;;;;92.60;56.97;;;;;;;;;;2140075;27;20070;-51
2021/11/02 02:51:54;;;;;;;95.35;57.05;;;;;;;;;;2136372;27;20042;-50
2021/11/02 02:52:55;;;;;;;95.90;56.70;;;;;;;;;;2140155;27;20491;-49
2021/11/02 02:53:56;;;;;;;89.28;55.08;;;;;;;;;;2140413;27;20052;-53
2021/11/02 02:54:58;;;;;;;99.40;56.47;;;;;;;;;;2136351;27;20105;-50
2021/11/02 02:56:01;;;;;;;88.55;54.42;;;;;;;;;;2139519;27;20121;-51
2021/11/02 02:57:03;;;;;;;90.18;55.65;;;;;;;;;;2138939;27;20053;-51
2021/11/02 02:58:04;;;;;;;98.05;58.22;;;;;;;;;;2137636;27;20142;-53
2021/11/02 02:59:06;;;;;;;98.28;58.47;;;;;;;;;;2140219;27;20042;-51
2021/11/02 03:00:10;;;;;;;93.95;56.70;;;;;;;;;;2139085;27;20046;-49
2021/11/02 03:01:12;;;;;;;94.88;57.67;;;;;;;;;;2138055;27;20121;-51
2021/11/02 03:02:14;;;;;;;89.75;55.58;;;;;;;;;;2140010;27;20126;-52
2021/11/02 03:03:16;;;;;;;100.32;57.72;;;;;;;;;;2136689;27;20141;-51
2021/11/02 03:04:20;;;;;;;92.25;57.00;;;;;;;;;;2138553;27;20069;-53
2021/11/02 03:05:24;;;;;;;94.43;57.40;;;;;;;;;;2140247;27;20167;-51
2021/11/02 03:06:27;;;;;;;102.20;60.25;;;;;;;;;;2136736;27;20047;-48
2021/11/02 03:07:28;;;;;;;101.32;58.78;;;;;;;;;;2139896;27;20137;-48
2021/11/02 03:08:29;;;;;;;100.40;55.53;;;;;;;;;;2140172;27;20124;-48
2021/11/02 03:09:30;;;;;;;95.18;55.50;;;;;;;;;;2136227;27;20046;-50
2021/11/02 03:10:31;;;;;;;99.03;58.90;;;;;;;;;;2137632;27;20151;-48
2021/11/02 03:11:33;;;;;;;102.67;58.03;;;;;;;;;;2131368;27;20095;-47
2021/11/02 03:12:35;;;;;;;97.53;57.08;;;;;;;;;;2134668;27;20138;-47
2021/11/02 03:13:37;;;;;;;;;;;;;;;;;;2140374;27;20611;-49
2021/11/02 03:14:52;;;;;;;84.07;50.22;;;;;;;;;;2140107;27;20438;-51
2021/11/02 03:15:58;;;;;;;96.03;56.10;;;;;;;;;;2136559;27;20141;-48
2021/11/02 03:17:02;;;;;;;101.25;59.22;;;;;;;;;;2140130;27;20258;-47
2021/11/02 03:18:09;;;;;;;97.07;57.30;;;;;;;;;;2137808;27;20481;-48
2021/11/02 03:43:26;;;;;;;102.68;60.58;;;;;;;;;;2113221;28;20071;-48
2021/11/02 03:43:47;;;;;;;97.60;59.33;;;;;;;;;;2139990;27;20125;-51
2021/11/02 03:45:10;;;;;;;96.07;53.15;;;;;;;;;;2137913;27;20092;-50
2021/11/02 03:49:10;;;;;;;103.22;59.13;;;;;;;;;;2124011;27;20125;-51
2021/11/02 03:50:23;;;;;;;108.97;62.15;;;;;;;;;;2131325;27;20062;-51
2021/11/02 03:55:23;;;;;;;100.18;61.58;;;;;;;;;;2131193;27;20057;-52
2021/11/02 03:56:37;;;;;;;106.70;63.05;;;;;;;;;;2131743;27;20125;-49
2021/11/02 03:57:46;;;;;;;102.65;60.65;;;;;;;;;;2137582;27;20041;-51
2021/11/02 03:59:04;;;;;;;101.20;59.67;;;;;;;;;;2139801;27;20046;-48
2021/11/02 04:01:38;;;;;;;102.28;61.03;;;;;;;;;;2131339;27;20081;-51
2021/11/02 04:24:51;;;;;;;105.95;61.40;;;;;;;;;;2105930;28;20056;-53
2021/11/02 04:36:41;;;;;;;107.47;62.47;;;;;;;;;;2113009;28;20138;-52
2021/11/02 04:43:24;;;;;;;104.47;62.67;;;;;;;;;;2132456;27;20039;-49
2021/11/02 05:07:38;;;;;;;116.68;65.95;;;;;;;;;;2114050;28;20132;-49
2021/11/02 05:47:31;;;;;;;122.25;66.30;;;;;;;;;;2139544;27;20038;-43
2021/11/02 05:48:44;;;;;;;114.18;63.42;;;;;;;;;;2140623;27;20393;-44
2021/11/02 05:49:58;;;;;;;;;;;;;;;;;;2136247;27;20137;-45
2021/11/02 05:55:15;;;;;;;115.60;63.72;;;;;;;;;;2134107;27;20624;-44
2021/11/02 05:56:21;;;;;;;125.32;66.00;;;;;;;;;;2131996;27;20138;-44
2021/11/02 05:57:26;;;;;;;118.18;64.95;;;;;;;;;;2132024;27;20043;-45
2021/11/02 05:58:30;;;;;;;113.80;63.42;;;;;;;;;;2136568;27;20512;-44
2021/11/02 05:59:34;;;;;;;119.70;64.80;;;;;;;;;;2140230;27;20093;-44
2021/11/02 06:00:45;;;;;;;113.82;62.80;;;;;;;;;;2139315;27;20178;-44
2021/11/02 06:02:04;;;;;;;115.88;63.72;;;;;;;;;;2138725;27;20428;-44
2021/11/02 06:03:22;;;;;;;122.70;63.45;;;;;;;;;;2139103;27;20043;-45
2021/11/02 06:04:43;;;;;;;109.72;58.00;;;;;;;;;;2136511;27;20524;-44
2021/11/02 06:05:52;;;;;;;114.35;60.83;;;;;;;;;;2140521;27;20091;-44
2021/11/02 06:07:10;;;;;;;113.22;62.85;;;;;;;;;;2138158;27;20042;-44
2021/11/02 06:09:50;;;;;;;116.47;64.40;;;;;;;;;;2112280;27;20117;-44
2021/11/02 06:11:04;;;;;;;108.65;62.38;;;;;;;;;;2137958;27;20498;-44
2021/11/02 06:28:38;;;;;;;107.95;60.47;;;;;;;;;;2140372;27;20089;-44
2021/11/02 06:29:40;;;;;;;108.25;58.58;;;;;;;;;;2140365;27;20053;-44
2021/11/02 06:30:46;;;;;;;104.90;58.80;;;;;;;;;;2136699;27;20475;-44
2021/11/02 06:31:53;;;;;;;111.32;58.45;;;;;;;;;;2140192;27;20149;-45
2021/11/02 06:33:03;;;;;;;111.80;60.83;;;;;;;;;;2139530;27;20126;-44
2021/11/02 06:34:10;;;;;;;107.50;59.25;;;;;;;;;;2138054;27;20524;-44
2021/11/02 06:35:16;;;;;;;112.32;60.42;;;;;;;;;;2140307;27;20495;-45
2021/11/02 06:37:48;;;;;;;113.53;60.20;;;;;;;;;;2105101;28;20214;-44
2021/11/02 06:43:09;;;;;;;110.57;58.47;;;;;;;;;;2110429;28;20050;-52
2021/11/02 06:47:16;;;;;;;116.55;59.65;;;;;;;;;;2113404;28;20043;-49
2021/11/02 06:48:32;;;;;;;99.93;51.75;;;;;;;;;;2134279;27;20125;-50
2021/11/02 06:54:16;;;;;;;103.43;57.88;;;;;;;;;;2112508;28;20075;-49
2021/11/02 06:58:28;;;;;;;112.75;59.40;;;;;;;;;;2138859;27;20050;-50
2021/11/02 06:59:43;;;;;;;108.20;57.67;;;;;;;;;;2139650;27;20432;-50
2021/11/02 07:15:42;;;;;;;99.65;54.60;;;;;;;;;;2137770;27;20128;-50
2021/11/02 07:18:11;;;;;;;94.57;52.97;;;;;;;;;;2120297;27;20145;-49
2021/11/02 07:19:16;;;;;;;99.15;54.95;;;;;;;;;;2140162;27;20129;-50
2021/11/02 07:20:30;;;;;;;103.60;55.35;;;;;;;;;;2139590;27;20125;-49
2021/11/02 07:21:40;;;;;;;105.47;56.95;;;;;;;;;;2137496;27;20483;-49
2021/11/02 07:22:53;;;;;;;102.50;54.53;;;;;;;;;;2139886;27;20133;-50
2021/11/02 07:24:01;;;;;;;104.70;55.33;;;;;;;;;;2137400;27;20130;-51
2021/11/02 07:25:12;;;;;;;100.30;55.42;;;;;;;;;;2131520;27;20046;-49
2021/11/02 07:27:53;;;;;;;102.97;56.53;;;;;;;;;;2127142;27;20044;-50
2021/11/02 08:46:06;;;;;;;71.57;41.58;;;;;;;;;;2132011;27;20071;-46
2021/11/02 08:47:10;;;;;;;67.22;40.33;;;;;;;;;;2137982;27;20038;-46
2021/11/02 08:48:11;;;;;;;68.47;41.00;;;;;;;;;;2140810;27;20049;-46
2021/11/02 08:49:12;;;;;;;68.68;42.05;;;;;;;;;;2139477;27;20443;-47
2021/11/02 08:50:14;;;;;;;72.43;41.63;;;;;;;;;;2139160;27;20050;-46
2021/11/02 08:51:17;;;;;;;67.97;41.33;;;;;;;;;;2140916;27;20353;-48
2021/11/02 08:52:19;;;;;;;71.00;41.67;;;;;;;;;;2138814;27;20121;-48
2021/11/02 08:53:20;;;;;;;;;;;;;;;;;;2141210;27;20129;-49
2021/11/02 08:54:21;;;;;;;68.78;39.53;;;;;;;;;;2140971;27;20280;-48
2021/11/02 08:55:22;;;;;;;65.47;38.67;;;;;;;;;;2138845;27;20041;-50
2021/11/02 08:56:23;;;;;;;70.55;39.03;;;;;;;;;;2134705;27;20130;-49
2021/11/02 08:57:24;;;;;;;71.83;40.17;;;;;;;;;;2132324;27;20046;-49
2021/11/02 08:58:26;;;;;;;68.60;40.63;;;;;;;;;;2135059;27;20797;-51
2021/11/02 08:59:27;;;;;;;69.55;41.13;;;;;;;;;;2139673;27;20126;-51
2021/11/02 09:00:29;;;;;;;64.15;38.38;;;;;;;;;;2140838;27;20133;-48
2021/11/02 09:01:33;;;;;;;66.47;40.30;;;;;;;;;;2137586;27;20125;-50
2021/11/02 09:02:35;;;;;;;72.32;41.22;;;;;;;;;;2140722;27;20133;-52
2021/11/02 09:03:37;;;;;;;71.45;38.40;;;;;;;;;;2139553;27;20133;-49
2021/11/02 09:04:41;;;;;;;68.60;40.65;;;;;;;;;;2137171;27;20536;-49
2021/11/02 09:05:42;;;;;;;66.03;40.03;;;;;;;;;;2140780;27;20121;-50
2021/11/02 09:06:47;;;;;;;66.05;40.00;;;;;;;;;;2140915;27;20171;-49
2021/11/02 09:07:49;;;;;;;69.50;40.03;;;;;;;;;;2137047;27;20184;-49
2021/11/02 09:08:54;;;;;;;72.90;39.95;;;;;;;;;;2140855;27;20144;-51
2021/11/02 09:09:56;;;;;;;72.88;40.47;;;;;;;;;;2139868;27;20073;-48
2021/11/02 09:11:00;;;;;;;71.30;41.67;;;;;;;;;;2138719;27;20126;-51
2021/11/02 09:12:03;;;;;;;68.63;40.92;;;;;;;;;;2140862;27;20062;-48
2021/11/02 09:13:07;;;;;;;72.13;41.72;;;;;;;;;;2138936;27;20042;-48
2021/11/02 09:14:09;;;;;;;71.25;42.90;;;;;;;;;;2139441;27;20444;-49
2021/11/02 09:15:13;;;;;;;70.60;42.35;;;;;;;;;;2140939;27;20178;-53
2021/11/02 09:16:15;;;;;;;68.32;40.45;;;;;;;;;;2137473;27;20400;-50
2021/11/02 09:17:17;;;;;;;74.97;42.25;;;;;;;;;;2140592;27;20046;-49
2021/11/02 09:18:20;;;;;;;;;;;;;;;;;;2141272;27;20125;-48
2021/11/02 09:19:22;;;;;;;79.28;44.10;;;;;;;;;;2137357;27;20005;-48
2021/11/02 09:20:23;;;;;;;;;;;;;;;;;;2141193;27;20042;-48
2021/11/02 09:21:23;;;;;;;70.10;41.72;;;;;;;;;;2140815;27;20375;-50
2021/11/02 09:22:25;;;;;;;73.38;41.92;;;;;;;;;;2137180;27;20046;-48
2021/11/02 09:23:26;;;;;;;72.78;42.85;;;;;;;;;;2140940;27;20046;-48
2021/11/02 09:24:27;;;;;;;79.65;44.05;;;;;;;;;;2141073;27;20125;-45
2021/11/02 09:25:28;;;;;;;80.90;42.83;;;;;;;;;;2137272;27;20042;-45
2021/11/02 09:26:31;;;;;;;77.17;43.30;;;;;;;;;;2140739;27;20142;-45
2021/11/02 09:27:32;;;;;;;82.05;44.17;;;;;;;;;;2140328;27;20097;-45
2021/11/02 09:28:33;;;;;;;83.47;45.10;;;;;;;;;;2137047;27;20483;-45
2021/11/02 09:29:34;;;;;;;80.05;44.72;;;;;;;;;;2140764;27;20151;-46
2021/11/02 09:30:35;;;;;;;85.00;45.77;;;;;;;;;;2140356;27;20045;-45
2021/11/02 09:31:37;;;;;;;75.80;42.72;;;;;;;;;;2137536;27;20098;-46
2021/11/02 09:32:40;;;;;;;82.80;44.47;;;;;;;;;;2140754;27;20081;-45
2021/11/02 09:33:41;;;;;;;81.25;44.60;;;;;;;;;;2139335;27;20125;-44
2021/11/02 09:34:43;;;;;;;78.15;42.72;;;;;;;;;;2138702;27;20430;-44
2021/11/02 09:35:46;;;;;;;86.53;44.42;;;;;;;;;;2140850;27;20038;-44
2021/11/02 09:36:52;;;;;;;81.78;44.95;;;;;;;;;;2138655;27;20078;-46
2021/11/02 09:38:02;;;;;;;76.47;42.40;;;;;;;;;;2139681;27;20607;-46
2021/11/02 09:39:04;;;;;;;83.60;45.05;;;;;;;;;;2140827;27;20170;-45
2021/11/02 09:40:10;;;;;;;73.53;41.67;;;;;;;;;;2138216;27;20494;-46
2021/11/02 09:41:28;;;;;;;78.45;42.25;;;;;;;;;;2140573;27;20133;-45
2021/11/02 09:42:53;;;;;;;74.45;40.38;;;;;;;;;;2128218;27;20042;-45
2021/11/02 09:45:42;;;;;;;71.18;40.67;;;;;;;;;;2123013;27;20126;-47
2021/11/02 09:46:56;;;;;;;73.28;40.45;;;;;;;;;;2135139;27;20041;-45
2021/11/02 09:48:03;;;;;;;70.22;39.45;;;;;;;;;;2140778;27;20061;-44
2021/11/02 09:49:28;;;;;;;74.15;39.38;;;;;;;;;;2137417;27;20047;-45
2021/11/02 09:50:44;;;;;;;66.93;39.75;;;;;;;;;;2132012;27;20487;-48
2021/11/02 09:52:04;;;;;;;70.68;39.88;;;;;;;;;;2131885;27;20049;-47
2021/11/02 09:53:23;;;;;;;65.70;39.30;;;;;;;;;;2131933;27;20479;-46
2021/11/02 09:54:44;;;;;;;64.18;38.58;;;;;;;;;;2130696;27;20095;-45
2021/11/02 09:55:56;;;;;;;60.70;36.70;;;;;;;;;;2140066;27;20090;-48
2021/11/02 09:57:10;;;;;;;61.40;37.35;;;;;;;;;;2140659;27;20121;-47
2021/11/02 09:58:14;;;;;;;57.30;35.80;;;;;;;;;;2137360;27;20482;-46
2021/11/02 09:59:27;;;;;;;59.70;36.03;;;;;;;;;;2140759;27;20107;-47
2021/11/02 10:00:37;;;;;;;59.08;35.95;;;;;;;;;;2138478;27;24365;-47
2021/11/02 10:01:44;;;;;;;59.10;35.90;;;;;;;;;;2139127;27;20043;-44
2021/11/02 10:03:14;;;;;;;56.40;35.10;;;;;;;;;;2140335;27;20034;-45
2021/11/02 10:04:55;;;;;;;57.28;35.40;;;;;;;;;;2139557;27;20113;-46
2021/11/02 10:06:16;;;;;;;52.95;34.03;;;;;;;;;;2140714;27;20046;-45
2021/11/02 10:07:35;;;;;;;51.75;33.25;;;;;;;;;;2138096;27;20611;-46
2021/11/02 10:08:43;;;;;;;51.95;33.95;;;;;;;;;;2139935;27;20121;-48
2021/11/02 10:09:56;;;;;;;56.85;34.80;;;;;;;;;;2136576;27;20046;-46
2021/11/02 10:10:56;;;;;;;;;;;;;;;;;;2141102;27;20042;-45
2021/11/02 10:12:00;;;;;;;49.28;31.73;;;;;;;;;;2139176;27;19942;-45
2021/11/02 10:13:06;;;;;;;47.15;32.03;;;;;;;;;;2135756;27;20138;-44
2021/11/02 10:14:19;;;;;;;49.28;31.40;;;;;;;;;;2131904;27;20053;-46
2021/11/02 10:15:33;;;;;;;45.58;31.55;;;;;;;;;;2124836;27;20042;-45
2021/11/02 10:16:42;;;;;;;45.65;30.10;;;;;;;;;;2124728;27;20050;-45
2021/11/02 10:18:07;;;;;;;42.88;30.55;;;;;;;;;;2131159;27;20082;-46
2021/11/02 10:19:21;;;;;;;45.55;30.30;;;;;;;;;;2097978;27;20053;-44
2021/11/02 10:20:29;;;;;;;40.78;28.63;;;;;;;;;;2131802;27;20098;-45
2021/11/02 10:21:56;;;;;;;42.88;29.33;;;;;;;;;;2135636;27;20074;-46
2021/11/02 10:23:09;;;;;;;39.60;27.70;;;;;;;;;;2140365;27;20546;-46
2021/11/02 10:24:28;;;;;;;39.83;28.45;;;;;;;;;;2138290;27;20154;-45
2021/11/02 10:25:38;;;;;;;42.10;28.45;;;;;;;;;;2131880;27;20117;-45
2021/11/02 10:26:45;;;;;;;42.65;28.15;;;;;;;;;;2132056;27;20034;-49
2021/11/02 10:28:00;;;;;;;36.55;26.38;;;;;;;;;;2137667;27;20179;-45
2021/11/02 10:29:12;;;;;;;39.33;28.02;;;;;;;;;;2140544;27;20105;-46
2021/11/02 10:30:23;;;;;;;48.20;32.20;;;;;;;;;;2137962;27;20042;-46
2021/11/02 10:31:31;;;;;;;45.67;31.20;;;;;;;;;;2131289;27;20098;-46
2021/11/02 10:32:34;;;;;;;47.85;31.15;;;;;;;;;;2131447;27;20051;-48
2021/11/02 10:33:36;;;;;;;43.75;29.45;;;;;;;;;;2137159;27;20375;-48
2021/11/02 10:34:44;;;;;;;37.78;27.73;;;;;;;;;;2140278;27;20073;-47
2021/11/02 10:36:00;;;;;;;42.17;27.83;;;;;;;;;;2137447;27;20171;-45
2021/11/02 10:37:16;;;;;;;39.58;27.48;;;;;;;;;;2137169;27;20128;-47
2021/11/02 10:38:23;;;;;;;43.55;29.48;;;;;;;;;;2136956;27;20129;-47
2021/11/02 10:39:31;;;;;;;40.22;28.77;;;;;;;;;;2136507;27;20118;-46
2021/11/02 10:40:37;;;;;;;39.22;28.10;;;;;;;;;;2139137;27;20125;-48
2021/11/02 10:41:43;;;;;;;39.08;27.88;;;;;;;;;;2132468;27;20129;-47
2021/11/02 10:42:59;;;;;;;39.03;27.33;;;;;;;;;;2137996;27;20555;-50
2021/11/02 10:44:05;;;;;;;37.90;26.58;;;;;;;;;;2139535;27;20046;-47
2021/11/02 10:45:09;;;;;;;37.30;25.95;;;;;;;;;;2137680;27;20042;-47
2021/11/02 10:46:31;;;;;;;35.80;26.77;;;;;;;;;;2131746;27;20046;-48
2021/11/02 10:47:38;;;;;;;36.08;26.73;;;;;;;;;;2130806;27;20499;-49